createdAt,value
2023-05-09T00:01:18.448Z,3.92
2023-05-09T00:04:21.412Z,4.85
2023-05-09T00:07:24.032Z,4.07
2023-05-09T00:10:27.557Z,3.80
2023-05-09T00:13:30.076Z,3.70
2023-05-09T00:16:33.165Z,3.42
2023-05-09T00:19:35.678Z,4.10
2023-05-09T00:22:41.667Z,3.47
2023-05-09T00:25:44.400Z,3.33
2023-05-09T00:28:46.844Z,3.97
2023-05-09T00:31:49.744Z,3.63
2023-05-09T00:34:52.874Z,3.78
2023-05-09T00:37:55.472Z,3.80
2023-05-09T00:40:58.112Z,4.38
2023-05-09T00:44:00.552Z,3.95
2023-05-09T00:47:03.118Z,4.38
2023-05-09T00:50:06.555Z,4.10
2023-05-09T00:53:09.264Z,3.83
2023-05-09T00:56:12.336Z,4.10
2023-05-09T00:59:16.957Z,3.83
2023-05-09T01:02:20.316Z,3.70
2023-05-09T01:05:31.090Z,3.42
2023-05-09T01:08:44.596Z,3.83
2023-05-09T01:11:53.041Z,3.65
2023-05-09T01:15:18.484Z,3.45
2023-05-09T01:18:45.639Z,3.63
2023-05-09T01:21:48.320Z,3.88
2023-05-09T01:25:13.311Z,3.28
2023-05-09T01:29:12.480Z,4.03
2023-05-09T01:32:20.119Z,3.90
2023-05-09T01:35:23.245Z,3.75
2023-05-09T01:38:26.140Z,3.83
2023-05-09T01:41:30.247Z,4.18
2023-05-09T01:44:39.819Z,4.30
2023-05-09T01:53:47.798Z,3.90
2023-05-09T01:56:50.285Z,3.75
2023-05-09T01:59:52.738Z,3.88
2023-05-09T02:02:55.380Z,4.30
2023-05-09T02:05:58.127Z,3.72
2023-05-09T02:09:00.748Z,3.63
2023-05-09T02:12:04.741Z,4.13
2023-05-09T02:15:08.887Z,4.15
2023-05-09T02:18:16.970Z,3.90
2023-05-09T02:21:19.529Z,3.38
2023-05-09T02:24:22.199Z,3.97
2023-05-09T02:27:25.633Z,4.05
2023-05-09T02:30:29.955Z,4.18
2023-05-09T02:33:33.414Z,3.65
2023-05-09T02:36:35.879Z,4.88
2023-05-09T02:39:38.269Z,3.92
2023-05-09T02:42:41.001Z,3.85
2023-05-09T02:45:43.993Z,4.35
2023-05-09T02:48:46.520Z,4.05
2023-05-09T02:51:48.954Z,4.50
2023-05-09T02:54:51.581Z,4.85
2023-05-09T02:58:05.669Z,4.25
2023-05-09T03:01:12.284Z,4.60
2023-05-09T03:04:15.018Z,4.90
2023-05-09T03:07:17.551Z,4.38
2023-05-09T03:10:20.217Z,4.45
2023-05-09T03:13:23.102Z,5.03
2023-05-09T03:16:25.695Z,4.80
2023-05-09T03:19:28.220Z,5.20
2023-05-09T03:22:30.740Z,4.53
2023-05-09T03:25:37.834Z,4.25
2023-05-09T03:28:41.691Z,4.78
2023-05-09T03:31:44.370Z,5.28
2023-05-09T03:34:47.047Z,4.47
2023-05-09T03:37:49.537Z,5.00
2023-05-09T03:40:53.790Z,5.72
2023-05-09T03:43:57.361Z,4.38
2023-05-09T03:46:59.950Z,5.38
2023-05-09T03:50:07.043Z,4.70
2023-05-09T03:53:10.780Z,4.88
2023-05-09T03:56:14.450Z,4.50
2023-05-09T03:59:22.377Z,4.82
2023-05-09T04:02:25.209Z,4.93
2023-05-09T04:05:27.917Z,5.40
2023-05-09T04:08:32.958Z,4.97
2023-05-09T04:11:36.808Z,4.93
2023-05-09T04:14:46.749Z,4.55
2023-05-09T04:17:50.922Z,4.75
2023-05-09T04:20:53.753Z,4.82
2023-05-09T04:27:06.458Z,4.55
2023-05-09T04:30:11.026Z,4.90
2023-05-09T04:33:14.220Z,4.75
2023-05-09T04:36:18.320Z,5.05
2023-05-09T04:39:21.787Z,5.22
2023-05-09T04:42:41.383Z,5.18
2023-05-09T04:45:45.184Z,4.78
2023-05-09T04:48:48.510Z,4.03
2023-05-09T04:51:51.796Z,4.95
2023-05-09T04:54:54.738Z,5.32
2023-05-09T04:58:03.015Z,5.10
2023-05-09T05:01:06.108Z,4.72
2023-05-09T05:04:08.780Z,5.20
2023-05-09T05:07:11.500Z,5.97
2023-05-09T05:10:14.500Z,4.32
2023-05-09T05:13:21.714Z,4.47
2023-05-09T05:16:28.599Z,5.00
2023-05-09T05:19:32.222Z,4.13
2023-05-09T05:22:38.216Z,5.00
2023-05-09T05:25:41.249Z,4.13
2023-05-09T05:28:43.843Z,4.03
2023-05-09T05:31:46.716Z,3.78
2023-05-09T05:34:49.801Z,3.85
2023-05-09T05:37:52.711Z,3.83
2023-05-09T05:40:55.378Z,4.13
2023-05-09T05:43:59.505Z,3.58
2023-05-09T05:47:02.015Z,3.92
2023-05-09T05:50:07.091Z,3.08
2023-05-09T05:53:11.556Z,3.78
2023-05-09T05:56:14.669Z,2.55
2023-05-09T05:59:17.270Z,2.70
2023-05-09T06:02:19.897Z,3.10
2023-05-09T06:05:23.422Z,2.45
2023-05-09T06:08:27.099Z,2.55
2023-05-09T06:11:29.546Z,2.92
2023-05-09T06:14:32.241Z,2.20
2023-05-09T06:17:35.163Z,2.60
2023-05-09T06:20:37.721Z,2.08
2023-05-09T06:23:47.293Z,2.10
2023-05-09T06:26:59.927Z,2.30
2023-05-09T06:30:08.374Z,2.10
2023-05-09T06:33:17.031Z,2.13
2023-05-09T06:36:19.684Z,2.10
2023-05-09T06:39:22.660Z,2.03
2023-05-09T06:42:25.549Z,2.00
2023-05-09T06:45:28.327Z,2.40
2023-05-09T06:48:30.847Z,2.45
2023-05-09T06:51:33.823Z,2.38
2023-05-09T06:54:36.287Z,2.47
2023-05-09T06:57:40.478Z,2.22
2023-05-09T07:00:43.400Z,2.10
2023-05-09T07:03:47.631Z,2.20
2023-05-09T07:06:50.082Z,1.90
2023-05-09T07:09:57.901Z,2.15
2023-05-09T07:13:06.709Z,1.83
2023-05-09T07:16:10.555Z,2.05
2023-05-09T07:19:13.020Z,2.13
2023-05-09T07:22:15.640Z,2.00
2023-05-09T07:25:18.361Z,2.03
2023-05-09T07:28:20.921Z,2.10
2023-05-09T07:31:23.342Z,2.38
2023-05-09T07:34:26.047Z,2.13
2023-05-09T07:37:28.840Z,2.75
2023-05-09T07:40:31.927Z,1.73
2023-05-09T07:43:34.367Z,2.03
2023-05-09T07:46:42.119Z,1.70
2023-05-09T07:49:46.610Z,1.75
2023-05-09T07:52:49.720Z,1.90
2023-05-09T07:55:52.368Z,1.83
2023-05-09T07:58:55.863Z,2.00
2023-05-09T08:01:58.450Z,2.00
2023-05-09T08:05:01.327Z,1.90
2023-05-09T08:08:04.391Z,1.98
2023-05-09T08:11:06.804Z,2.40
2023-05-09T08:14:10.513Z,2.20
2023-05-09T08:17:12.946Z,2.25
2023-05-09T08:20:15.601Z,2.10
2023-05-09T08:23:18.003Z,2.00
2023-05-09T08:26:22.671Z,1.90
2023-05-09T08:29:25.219Z,1.85
2023-05-09T08:32:27.910Z,1.90
2023-05-09T08:35:30.412Z,1.88
2023-05-09T08:38:32.931Z,4.85
2023-05-09T08:41:39.003Z,15.85
2023-05-09T08:44:41.702Z,7.47
2023-05-09T08:47:44.676Z,3.53
2023-05-09T08:50:47.325Z,1.80
2023-05-09T08:53:52.561Z,2.42
2023-05-09T08:56:55.235Z,1.83
2023-05-09T08:59:57.993Z,2.08
2023-05-09T09:03:02.188Z,1.90
2023-05-09T09:06:04.862Z,1.42
2023-05-09T09:09:09.050Z,1.60
2023-05-09T09:12:15.821Z,1.60
2023-05-09T09:15:18.500Z,1.88
2023-05-09T09:18:27.082Z,1.70
2023-05-09T09:21:32.192Z,1.67
2023-05-09T09:24:34.725Z,1.85
2023-05-09T09:27:37.353Z,1.90
2023-05-09T09:33:51.302Z,1.90
2023-05-09T09:36:54.191Z,1.80
2023-05-09T09:39:57.222Z,2.03
2023-05-09T09:42:59.916Z,1.98
2023-05-09T09:46:03.620Z,2.00
2023-05-09T09:49:06.242Z,1.50
2023-05-09T09:55:12.163Z,2.00
2023-05-09T09:58:18.751Z,1.90
2023-05-09T10:01:21.360Z,2.00
2023-05-09T10:04:24.317Z,2.03
2023-05-09T10:07:26.841Z,2.00
2023-05-09T10:10:36.750Z,2.15
2023-05-09T10:13:39.459Z,1.90
2023-05-09T10:16:44.611Z,1.60
2023-05-09T10:19:47.802Z,1.90
2023-05-09T10:22:51.122Z,1.92
2023-05-09T10:26:00.781Z,2.00
2023-05-09T10:29:03.266Z,2.03
2023-05-09T10:32:20.813Z,1.95
2023-05-09T10:35:26.555Z,2.35
2023-05-09T10:38:29.111Z,1.95
2023-05-09T10:44:34.249Z,2.10
2023-05-09T10:47:37.132Z,2.45
2023-05-09T10:50:40.530Z,1.70
2023-05-09T10:53:48.009Z,2.30
2023-05-09T10:56:50.617Z,2.47
2023-05-09T10:59:53.156Z,2.20
2023-05-09T11:03:08.292Z,2.28
2023-05-09T11:06:11.135Z,1.85
2023-05-09T11:09:37.908Z,2.10
2023-05-09T11:12:59.986Z,1.80
2023-05-09T11:16:02.592Z,2.08
2023-05-09T11:19:05.996Z,1.95
2023-05-09T11:22:32.546Z,2.00
2023-05-09T11:25:36.198Z,1.92
2023-05-09T11:28:38.982Z,2.40
2023-05-09T11:32:07.296Z,1.92
2023-05-09T11:35:15.644Z,2.17
2023-05-09T11:38:21.358Z,1.88
2023-05-09T11:41:23.855Z,2.05
2023-05-09T11:44:27.911Z,2.50
2023-05-09T11:47:31.079Z,1.58
2023-05-09T11:50:33.650Z,1.70
2023-05-09T11:53:45.168Z,1.70
2023-05-09T11:56:47.506Z,1.80
2023-05-09T12:02:53.471Z,1.70
2023-05-09T12:05:56.233Z,1.80
2023-05-09T12:08:58.716Z,1.95
2023-05-09T12:12:01.611Z,1.70
2023-05-09T12:15:07.908Z,2.15
2023-05-09T12:18:10.539Z,1.90
2023-05-09T12:21:12.981Z,2.40
2023-05-09T12:24:21.435Z,2.17
2023-05-09T12:30:26.522Z,1.70
2023-05-09T12:33:29.171Z,1.52
2023-05-09T12:36:36.044Z,2.17
2023-05-09T12:39:38.487Z,1.70
2023-05-09T12:42:43.743Z,1.98
2023-05-09T12:45:46.196Z,2.00
2023-05-09T12:48:49.547Z,1.90
2023-05-09T12:51:53.745Z,1.73
2023-05-09T12:54:56.336Z,1.70
2023-05-09T12:57:59.973Z,1.85
2023-05-09T13:01:03.999Z,1.85
2023-05-09T13:04:07.682Z,2.08
2023-05-09T13:07:13.133Z,2.00
2023-05-09T13:10:21.704Z,1.83
2023-05-09T13:13:27.894Z,1.80
2023-05-09T13:16:30.658Z,1.73
2023-05-09T13:19:39.394Z,1.70
2023-05-09T13:22:41.904Z,1.60
2023-05-09T13:25:44.787Z,1.50
2023-05-09T13:28:47.349Z,1.85
2023-05-09T13:31:49.673Z,1.50
2023-05-09T13:34:52.588Z,1.73
2023-05-09T13:37:55.051Z,1.73
2023-05-09T13:40:57.953Z,1.70
2023-05-09T13:44:00.462Z,1.77
2023-05-09T13:47:02.901Z,1.60
2023-05-09T13:50:06.132Z,1.50
2023-05-09T13:53:08.560Z,1.58
2023-05-09T13:56:11.044Z,1.70
2023-05-09T13:59:13.815Z,1.70
2023-05-09T14:02:16.312Z,1.50
2023-05-09T14:05:18.924Z,1.67
2023-05-09T14:08:21.552Z,2.05
2023-05-09T14:11:26.183Z,1.50
2023-05-09T14:14:28.913Z,1.58
2023-05-09T14:17:31.503Z,1.60
2023-05-09T14:20:37.085Z,1.60
2023-05-09T14:23:39.510Z,1.70
2023-05-09T14:26:42.136Z,1.52
2023-05-09T14:29:44.777Z,1.42
2023-05-09T14:32:47.294Z,1.50
2023-05-09T14:35:49.875Z,1.45
2023-05-09T14:38:52.875Z,1.50
2023-05-09T14:41:55.961Z,1.50
2023-05-09T14:44:58.856Z,1.75
2023-05-09T14:48:02.653Z,1.70
2023-05-09T14:51:05.552Z,1.40
2023-05-09T14:54:08.383Z,1.42
2023-05-09T14:57:10.797Z,1.80
2023-05-09T15:00:21.457Z,1.77
2023-05-09T15:03:25.070Z,2.00
2023-05-09T15:06:29.235Z,1.77
2023-05-09T15:09:31.826Z,1.58
2023-05-09T15:12:34.232Z,1.48
2023-05-09T15:15:39.868Z,1.48
2023-05-09T15:18:46.252Z,1.80
2023-05-09T15:21:48.721Z,1.80
2023-05-09T15:24:51.234Z,1.70
2023-05-09T15:27:54.185Z,2.30
2023-05-09T15:30:58.207Z,1.90
2023-05-09T15:34:01.429Z,1.80
2023-05-09T15:37:04.068Z,1.88
2023-05-09T15:40:07.907Z,1.70
2023-05-09T15:43:10.459Z,2.05
2023-05-09T15:46:13.323Z,1.60
2023-05-09T15:49:15.834Z,1.92
2023-05-09T15:55:20.760Z,1.75
2023-05-09T15:58:23.614Z,1.80
2023-05-09T16:01:26.327Z,1.73
2023-05-09T16:04:28.785Z,1.50
2023-05-09T16:07:33.259Z,1.92
2023-05-09T16:10:36.696Z,1.73
2023-05-09T16:13:39.208Z,1.80
2023-05-09T16:16:42.988Z,1.63
2023-05-09T16:19:45.491Z,2.00
2023-05-09T16:22:48.127Z,1.90
2023-05-09T16:28:53.133Z,1.77
2023-05-09T16:31:55.896Z,1.85
2023-05-09T16:34:58.353Z,1.80
2023-05-09T16:38:01.126Z,2.10
2023-05-09T16:41:03.710Z,2.10
2023-05-09T16:44:06.304Z,1.83
2023-05-09T16:47:09.125Z,1.75
2023-05-09T16:53:14.698Z,1.70
2023-05-09T16:56:17.137Z,1.88
2023-05-09T16:59:20.310Z,1.80
2023-05-09T17:02:22.714Z,2.47
2023-05-09T17:05:25.511Z,1.95
2023-05-09T17:11:30.444Z,1.63
2023-05-09T17:14:33.313Z,2.50
2023-05-09T17:17:36.110Z,1.98
2023-05-09T17:20:38.694Z,1.98
2023-05-09T17:23:41.596Z,1.75
2023-05-09T17:29:46.450Z,1.70
2023-05-09T17:32:49.138Z,1.55
2023-05-09T17:38:53.969Z,2.90
2023-05-09T17:41:56.742Z,3.03
2023-05-09T17:44:59.284Z,4.55
2023-05-09T17:48:02.294Z,6.05
2023-05-09T17:51:04.943Z,5.47
2023-05-09T17:54:07.628Z,3.78
2023-05-09T17:57:10.177Z,3.03
2023-05-09T18:00:13.345Z,2.25
2023-05-09T18:03:16.426Z,2.70
2023-05-09T18:06:19.348Z,2.35
2023-05-09T18:12:28.908Z,2.20
2023-05-09T18:15:32.103Z,2.63
2023-05-09T18:18:35.759Z,3.20
2023-05-09T18:21:38.856Z,2.92
2023-05-09T18:24:41.351Z,3.15
2023-05-09T18:27:43.876Z,2.58
2023-05-09T18:30:46.300Z,3.20
2023-05-09T18:33:49.222Z,2.92
2023-05-09T18:39:55.017Z,3.17
2023-05-09T18:42:57.654Z,2.25
2023-05-09T18:46:00.293Z,2.65
2023-05-09T18:49:05.960Z,2.38
2023-05-09T18:52:09.413Z,2.40
2023-05-09T18:55:14.833Z,2.03
2023-05-09T18:58:17.416Z,2.83
2023-05-09T19:01:19.960Z,3.22
2023-05-09T19:04:22.845Z,3.05
2023-05-09T19:07:25.652Z,3.08
2023-05-09T19:10:28.224Z,2.85
2023-05-09T19:13:33.557Z,3.45
2023-05-09T19:16:36.126Z,3.10
2023-05-09T19:19:38.710Z,2.22
2023-05-09T19:22:45.581Z,2.80
2023-05-09T19:25:49.912Z,2.30
2023-05-09T19:28:54.715Z,3.20
2023-05-09T19:31:57.354Z,2.85
2023-05-09T19:34:59.994Z,2.80
2023-05-09T19:38:02.674Z,3.38
2023-05-09T19:41:05.291Z,2.97
2023-05-09T19:44:08.376Z,2.80
2023-05-09T19:47:11.013Z,2.63
2023-05-09T19:50:13.764Z,2.53
2023-05-09T19:53:16.496Z,2.58
2023-05-09T19:56:18.935Z,2.80
2023-05-09T19:59:21.362Z,2.80
2023-05-09T20:02:24.001Z,3.45
2023-05-09T20:05:45.404Z,4.90
2023-05-09T20:08:47.939Z,4.38
2023-05-09T20:11:50.728Z,4.43
2023-05-09T20:14:53.207Z,3.90
2023-05-09T20:17:55.702Z,3.30
2023-05-09T20:20:59.832Z,2.60
2023-05-09T20:24:02.621Z,2.45
2023-05-09T20:27:04.980Z,2.45
2023-05-09T20:30:07.978Z,2.53
2023-05-09T20:33:10.764Z,2.80
2023-05-09T20:36:13.439Z,2.40
2023-05-09T20:39:17.819Z,2.35
2023-05-09T20:42:20.193Z,2.90
2023-05-09T20:45:22.980Z,2.65
2023-05-09T20:48:26.026Z,2.70
2023-05-09T20:54:31.101Z,2.53
2023-05-09T21:00:35.851Z,2.13
2023-05-09T21:03:38.676Z,2.13
2023-05-09T21:06:41.220Z,2.50
2023-05-09T21:09:43.843Z,2.40
2023-05-09T21:12:46.452Z,2.20
2023-05-09T21:15:50.896Z,2.20
2023-05-09T21:18:53.493Z,2.00
2023-05-09T21:21:56.291Z,2.10
2023-05-09T21:24:58.984Z,2.50
2023-05-09T21:28:01.594Z,2.20
2023-05-09T21:31:04.195Z,2.03
2023-05-09T21:34:10.280Z,2.72
2023-05-09T21:37:13.184Z,2.10
2023-05-09T21:40:16.366Z,2.60
2023-05-09T21:43:19.414Z,2.63
2023-05-09T21:46:21.915Z,1.90
2023-05-09T21:49:24.425Z,1.90
2023-05-09T21:52:26.847Z,2.10
2023-05-09T21:55:29.337Z,2.70
2023-05-09T21:58:31.978Z,2.60
2023-05-09T22:01:34.469Z,2.33
2023-05-09T22:04:37.246Z,2.42
2023-05-09T22:07:39.660Z,2.58
2023-05-09T22:10:41.978Z,2.42
2023-05-09T22:13:44.403Z,2.50
2023-05-09T22:16:47.087Z,2.70
2023-05-09T22:19:49.815Z,2.47
2023-05-09T22:22:52.306Z,2.40
2023-05-09T22:25:54.989Z,2.40
2023-05-09T22:28:57.941Z,2.40
2023-05-09T22:32:01.309Z,2.28
2023-05-09T22:35:03.995Z,2.40
2023-05-09T22:38:06.629Z,3.00
2023-05-09T22:41:09.269Z,2.70
2023-05-09T22:44:11.665Z,3.08
2023-05-09T22:47:14.132Z,2.75
2023-05-09T22:50:17.212Z,2.95
2023-05-09T22:53:19.827Z,2.47
2023-05-09T22:56:22.410Z,3.33
2023-05-09T22:59:25.471Z,2.72
2023-05-09T23:02:28.144Z,2.47
2023-05-09T23:09:28.102Z,2.90
2023-05-09T23:12:30.917Z,2.85
2023-05-09T23:15:33.613Z,2.50
2023-05-09T23:18:35.990Z,3.08
2023-05-09T23:21:38.485Z,3.22
2023-05-09T23:24:41.310Z,3.20
2023-05-09T23:27:45.270Z,2.67
2023-05-09T23:30:47.904Z,3.20
2023-05-09T23:33:50.743Z,3.38
2023-05-09T23:36:53.270Z,3.00
2023-05-09T23:39:56.234Z,3.33
2023-05-09T23:46:02.167Z,2.92
2023-05-09T23:52:07.041Z,3.30
2023-05-09T23:55:09.814Z,2.78
2023-05-09T23:58:12.758Z,2.88
